sensor_id;sensor_type;location;lat;lon;timestamp;temperature;humidity
17968;DHT22;9109;48.050;11.696;2023-03-23T04:45:57;8.70;99.90
17968;DHT22;9109;48.050;11.696;2023-03-23T04:49:00;8.70;99.90
17968;DHT22;9109;48.050;11.696;2023-03-23T04:52:02;8.70;99.90
17968;DHT22;9109;48.050;11.696;2023-03-23T04:55:08;8.70;99.90
17968;DHT22;9109;48.050;11.696;2023-03-23T04:58:12;8.60;99.90
17968;DHT22;9109;48.050;11.696;2023-03-23T05:01:16;8.60;99.90
17968;DHT22;9109;48.050;11.696;2023-03-23T05:04:18;8.60;99.90
17968;DHT22;9109;48.050;11.696;2023-03-23T05:07:20;8.60;99.90
17968;DHT22;9109;48.050;11.696;2023-03-23T05:10:22;8.60;99.90
17968;DHT22;9109;48.050;11.696;2023-03-23T05:13:27;8.60;99.90
17968;DHT22;9109;48.050;11.696;2023-03-23T05:16:30;8.50;99.90
17968;DHT22;9109;48.050;11.696;2023-03-23T05:19:32;8.50;99.90
17968;DHT22;9109;48.050;11.696;2023-03-23T05:22:34;8.40;99.90
17968;DHT22;9109;48.050;11.696;2023-03-23T05:25:37;8.50;99.90
17968;DHT22;9109;48.050;11.696;2023-03-23T05:28:40;8.50;99.90
17968;DHT22;9109;48.050;11.696;2023-03-23T05:31:43;8.50;99.90
17968;DHT22;9109;48.050;11.696;2023-03-23T05:34:46;8.40;99.90
17968;DHT22;9109;48.050;11.696;2023-03-23T05:37:49;8.40;99.90
17968;DHT22;9109;48.050;11.696;2023-03-23T05:40:53;8.50;99.90
17968;DHT22;9109;48.050;11.696;2023-03-23T05:43:55;8.50;99.90
17968;DHT22;9109;48.050;11.696;2023-03-23T05:46:59;8.50;99.90
17968;DHT22;9109;48.050;11.696;2023-03-23T05:50:01;8.60;99.90
17968;DHT22;9109;48.050;11.696;2023-03-23T05:53:03;8.60;99.90
17968;DHT22;9109;48.050;11.696;2023-03-23T05:56:05;8.60;99.90
17968;DHT22;9109;48.050;11.696;2023-03-23T05:59:07;8.70;99.90
17968;DHT22;9109;48.050;11.696;2023-03-23T06:02:11;8.70;99.90
17968;DHT22;9109;48.050;11.696;2023-03-23T06:05:15;8.80;99.90
17968;DHT22;9109;48.050;11.696;2023-03-23T06:08:17;8.80;99.90
17968;DHT22;9109;48.050;11.696;2023-03-23T06:11:19;8.90;99.90
17968;DHT22;9109;48.050;11.696;2023-03-23T06:14:21;9.00;99.90
17968;DHT22;9109;48.050;11.696;2023-03-23T06:17:25;9.00;99.90
17968;DHT22;9109;48.050;11.696;2023-03-23T06:20:27;9.10;99.90
17968;DHT22;9109;48.050;11.696;2023-03-23T06:23:30;9.10;99.90
17968;DHT22;9109;48.050;11.696;2023-03-23T06:26:34;9.10;99.90
17968;DHT22;9109;48.050;11.696;2023-03-23T06:29:37;9.10;99.90
17968;DHT22;9109;48.050;11.696;2023-03-23T06:32:42;9.20;99.90
17968;DHT22;9109;48.050;11.696;2023-03-23T06:35:46;9.30;99.90
17968;DHT22;9109;48.050;11.696;2023-03-23T06:38:49;9.30;99.90
17968;DHT22;9109;48.050;11.696;2023-03-23T06:41:51;9.40;99.90
17968;DHT22;9109;48.050;11.696;2023-03-23T06:44:53;9.40;99.90
17968;DHT22;9109;48.050;11.696;2023-03-23T06:47:58;9.30;99.90
17968;DHT22;9109;48.050;11.696;2023-03-23T06:51:00;9.30;99.90
17968;DHT22;9109;48.050;11.696;2023-03-23T06:54:03;9.50;99.90
17968;DHT22;9109;48.050;11.696;2023-03-23T06:57:05;9.50;99.90
17968;DHT22;9109;48.050;11.696;2023-03-23T07:00:08;9.50;99.90
17968;DHT22;9109;48.050;11.696;2023-03-23T07:03:14;9.50;99.90
17968;DHT22;9109;48.050;11.696;2023-03-23T07:06:16;9.60;99.90
17968;DHT22;9109;48.050;11.696;2023-03-23T07:09:18;9.50;99.90
17968;DHT22;9109;48.050;11.696;2023-03-23T07:12:20;9.60;99.90
17968;DHT22;9109;48.050;11.696;2023-03-23T07:15:22;9.80;99.90
17968;DHT22;9109;48.050;11.696;2023-03-23T07:18:25;10.00;99.90
17968;DHT22;9109;48.050;11.696;2023-03-23T07:21:27;10.00;99.90
17968;DHT22;9109;48.050;11.696;2023-03-23T07:24:29;10.10;99.90
17968;DHT22;9109;48.050;11.696;2023-03-23T07:27:31;10.20;99.90
17968;DHT22;9109;48.050;11.696;2023-03-23T07:30:33;10.30;99.90
17968;DHT22;9109;48.050;11.696;2023-03-23T07:33:36;10.40;99.90
17968;DHT22;9109;48.050;11.696;2023-03-23T07:36:39;10.50;99.90
17968;DHT22;9109;48.050;11.696;2023-03-23T07:39:41;10.60;99.90
17968;DHT22;9109;48.050;11.696;2023-03-23T07:42:43;10.60;99.90
17968;DHT22;9109;48.050;11.696;2023-03-23T07:45:46;10.70;99.90
17968;DHT22;9109;48.050;11.696;2023-03-23T07:48:49;10.90;99.90
17968;DHT22;9109;48.050;11.696;2023-03-23T07:51:52;11.00;99.90
17968;DHT22;9109;48.050;11.696;2023-03-23T07:54:54;11.20;99.90
17968;DHT22;9109;48.050;11.696;2023-03-23T07:57:56;11.40;99.90
17968;DHT22;9109;48.050;11.696;2023-03-23T08:00:58;11.50;99.90
17968;DHT22;9109;48.050;11.696;2023-03-23T08:04:01;11.70;99.90
17968;DHT22;9109;48.050;11.696;2023-03-23T08:07:03;11.90;99.90
17968;DHT22;9109;48.050;11.696;2023-03-23T08:10:07;12.10;99.90
17968;DHT22;9109;48.050;11.696;2023-03-23T08:13:12;12.30;99.90
17968;DHT22;9109;48.050;11.696;2023-03-23T08:16:14;12.60;99.90
17968;DHT22;9109;48.050;11.696;2023-03-23T08:19:18;12.90;98.40
17968;DHT22;9109;48.050;11.696;2023-03-23T08:22:20;13.00;97.70
17968;DHT22;9109;48.050;11.696;2023-03-23T08:25:23;13.20;96.50
17968;DHT22;9109;48.050;11.696;2023-03-23T08:28:26;13.20;96.30
17968;DHT22;9109;48.050;11.696;2023-03-23T08:31:28;13.30;96.50
17968;DHT22;9109;48.050;11.696;2023-03-23T08:34:32;13.30;96.30
17968;DHT22;9109;48.050;11.696;2023-03-23T08:37:34;13.40;95.90
17968;DHT22;9109;48.050;11.696;2023-03-23T08:40:36;13.50;95.60
17968;DHT22;9109;48.050;11.696;2023-03-23T08:43:38;13.50;95.60
17968;DHT22;9109;48.050;11.696;2023-03-23T08:46:40;13.60;95.50
17968;DHT22;9109;48.050;11.696;2023-03-23T08:49:44;13.70;95.00
17968;DHT22;9109;48.050;11.696;2023-03-23T08:52:46;13.70;94.50
17968;DHT22;9109;48.050;11.696;2023-03-23T08:55:48;13.70;94.80
17968;DHT22;9109;48.050;11.696;2023-03-23T08:58:50;13.60;95.10
17968;DHT22;9109;48.050;11.696;2023-03-23T09:01:52;13.60;94.90
17968;DHT22;9109;48.050;11.696;2023-03-23T09:04:56;13.60;94.90
17968;DHT22;9109;48.050;11.696;2023-03-23T09:07:58;13.70;95.10
17968;DHT22;9109;48.050;11.696;2023-03-23T09:11:00;13.70;94.30
17968;DHT22;9109;48.050;11.696;2023-03-23T09:14:04;13.80;93.90
17968;DHT22;9109;48.050;11.696;2023-03-23T09:17:06;13.90;93.90
17968;DHT22;9109;48.050;11.696;2023-03-23T09:20:12;13.90;94.30
17968;DHT22;9109;48.050;11.696;2023-03-23T09:23:14;14.00;94.00
17968;DHT22;9109;48.050;11.696;2023-03-23T09:26:16;14.10;94.10
17968;DHT22;9109;48.050;11.696;2023-03-23T09:29:18;14.10;93.90
17968;DHT22;9109;48.050;11.696;2023-03-23T09:32:21;14.30;94.20
17968;DHT22;9109;48.050;11.696;2023-03-23T09:35:25;14.30;93.00
17968;DHT22;9109;48.050;11.696;2023-03-23T09:38:28;14.50;92.80
17968;DHT22;9109;48.050;11.696;2023-03-23T09:41:43;14.70;91.80
17968;DHT22;9109;48.050;11.696;2023-03-23T09:44:57;14.90;90.70
17968;DHT22;9109;48.050;11.696;2023-03-23T09:51:37;15.20;87.40
17968;DHT22;9109;48.050;11.696;2023-03-23T09:54:43;15.30;86.90
17968;DHT22;9109;48.050;11.696;2023-03-23T09:57:50;15.40;86.00
17968;DHT22;9109;48.050;11.696;2023-03-23T10:00:57;15.30;85.50
17968;DHT22;9109;48.050;11.696;2023-03-23T10:04:05;15.30;86.10
17968;DHT22;9109;48.050;11.696;2023-03-23T10:07:12;15.60;85.00
17968;DHT22;9109;48.050;11.696;2023-03-23T10:10:14;15.70;83.50
17968;DHT22;9109;48.050;11.696;2023-03-23T10:13:26;15.70;83.10
17968;DHT22;9109;48.050;11.696;2023-03-23T10:16:34;15.80;81.50
17968;DHT22;9109;48.050;11.696;2023-03-23T10:19:46;16.10;80.60
17968;DHT22;9109;48.050;11.696;2023-03-23T10:22:53;16.20;81.00
17968;DHT22;9109;48.050;11.696;2023-03-23T10:26:04;16.20;78.50
17968;DHT22;9109;48.050;11.696;2023-03-23T10:29:13;16.30;78.30
17968;DHT22;9109;48.050;11.696;2023-03-23T10:32:19;16.30;77.20
17968;DHT22;9109;48.050;11.696;2023-03-23T10:35:26;16.40;77.70
17968;DHT22;9109;48.050;11.696;2023-03-23T10:38:34;16.40;78.20
17968;DHT22;9109;48.050;11.696;2023-03-23T10:41:37;16.30;77.00
17968;DHT22;9109;48.050;11.696;2023-03-23T10:44:39;16.40;77.30
17968;DHT22;9109;48.050;11.696;2023-03-23T10:47:44;16.40;77.10
17968;DHT22;9109;48.050;11.696;2023-03-23T10:50:50;16.30;78.50
17968;DHT22;9109;48.050;11.696;2023-03-23T10:54:00;16.10;79.30
17968;DHT22;9109;48.050;11.696;2023-03-23T10:57:12;16.10;79.60
17968;DHT22;9109;48.050;11.696;2023-03-23T11:00:18;16.00;79.20
17968;DHT22;9109;48.050;11.696;2023-03-23T11:03:33;16.00;80.00
17968;DHT22;9109;48.050;11.696;2023-03-23T11:06:35;16.00;81.00
17968;DHT22;9109;48.050;11.696;2023-03-23T11:09:53;16.00;80.60
17968;DHT22;9109;48.050;11.696;2023-03-23T11:12:58;16.10;80.80
17968;DHT22;9109;48.050;11.696;2023-03-23T11:16:01;16.10;81.30
17968;DHT22;9109;48.050;11.696;2023-03-23T11:19:12;16.10;81.50
17968;DHT22;9109;48.050;11.696;2023-03-23T11:22:24;16.20;80.70
17968;DHT22;9109;48.050;11.696;2023-03-23T11:25:32;16.20;81.10
17968;DHT22;9109;48.050;11.696;2023-03-23T11:28:38;16.30;80.10
17968;DHT22;9109;48.050;11.696;2023-03-23T11:31:45;16.30;78.30
17968;DHT22;9109;48.050;11.696;2023-03-23T11:34:53;16.20;78.00
17968;DHT22;9109;48.050;11.696;2023-03-23T11:37:57;16.20;78.40
17968;DHT22;9109;48.050;11.696;2023-03-23T11:41:01;16.30;77.90
17968;DHT22;9109;48.050;11.696;2023-03-23T11:44:16;16.40;79.10
17968;DHT22;9109;48.050;11.696;2023-03-23T11:47:27;16.70;77.50
17968;DHT22;9109;48.050;11.696;2023-03-23T11:50:44;16.80;76.20
17968;DHT22;9109;48.050;11.696;2023-03-23T11:53:57;16.80;74.40
17968;DHT22;9109;48.050;11.696;2023-03-23T11:57:11;16.80;75.20
17968;DHT22;9109;48.050;11.696;2023-03-23T12:00:17;16.90;73.20
17968;DHT22;9109;48.050;11.696;2023-03-23T12:03:31;16.90;74.10
17968;DHT22;9109;48.050;11.696;2023-03-23T12:06:46;16.90;73.90
17968;DHT22;9109;48.050;11.696;2023-03-23T12:10:02;17.00;74.40
17968;DHT22;9109;48.050;11.696;2023-03-23T12:13:27;17.00;74.60
17968;DHT22;9109;48.050;11.696;2023-03-23T12:16:46;17.00;72.60
17968;DHT22;9109;48.050;11.696;2023-03-23T12:20:02;17.20;71.90
17968;DHT22;9109;48.050;11.696;2023-03-23T12:23:22;17.30;71.80
17968;DHT22;9109;48.050;11.696;2023-03-23T12:26:27;17.40;70.60
17968;DHT22;9109;48.050;11.696;2023-03-23T12:29:49;17.30;69.90
17968;DHT22;9109;48.050;11.696;2023-03-23T12:33:13;17.40;69.30
17968;DHT22;9109;48.050;11.696;2023-03-23T12:36:29;17.40;70.60
17968;DHT22;9109;48.050;11.696;2023-03-23T12:39:48;17.40;69.90
17968;DHT22;9109;48.050;11.696;2023-03-23T12:42:58;17.40;68.90
17968;DHT22;9109;48.050;11.696;2023-03-23T12:49:41;17.40;68.70
17968;DHT22;9109;48.050;11.696;2023-03-23T12:52:50;17.40;68.20
17968;DHT22;9109;48.050;11.696;2023-03-23T12:56:06;17.40;66.90
17968;DHT22;9109;48.050;11.696;2023-03-23T12:59:13;17.50;66.80
17968;DHT22;9109;48.050;11.696;2023-03-23T13:02:21;17.50;66.90
17968;DHT22;9109;48.050;11.696;2023-03-23T13:05:35;17.70;66.80
17968;DHT22;9109;48.050;11.696;2023-03-23T13:08:42;17.70;66.70
17968;DHT22;9109;48.050;11.696;2023-03-23T13:11:47;17.80;66.00
17968;DHT22;9109;48.050;11.696;2023-03-23T13:15:00;17.90;64.40
17968;DHT22;9109;48.050;11.696;2023-03-23T13:18:10;17.70;62.70
17968;DHT22;9109;48.050;11.696;2023-03-23T13:21:20;17.60;63.10
17968;DHT22;9109;48.050;11.696;2023-03-23T13:24:26;17.60;63.30
17968;DHT22;9109;48.050;11.696;2023-03-23T13:27:30;17.50;63.20
17968;DHT22;9109;48.050;11.696;2023-03-23T13:30:33;17.50;63.20
17968;DHT22;9109;48.050;11.696;2023-03-23T13:33:36;17.50;63.30
17968;DHT22;9109;48.050;11.696;2023-03-23T13:36:41;17.40;63.80
17968;DHT22;9109;48.050;11.696;2023-03-23T13:39:49;17.30;64.00
17968;DHT22;9109;48.050;11.696;2023-03-23T13:42:55;17.40;64.80
17968;DHT22;9109;48.050;11.696;2023-03-23T13:46:07;17.30;64.40
17968;DHT22;9109;48.050;11.696;2023-03-23T13:49:19;17.40;64.50
17968;DHT22;9109;48.050;11.696;2023-03-23T13:52:37;17.50;64.30
17968;DHT22;9109;48.050;11.696;2023-03-23T13:55:42;17.50;63.60
17968;DHT22;9109;48.050;11.696;2023-03-23T13:58:46;17.50;64.20
17968;DHT22;9109;48.050;11.696;2023-03-23T14:01:48;17.50;64.30
17968;DHT22;9109;48.050;11.696;2023-03-23T14:04:51;17.60;65.00
17968;DHT22;9109;48.050;11.696;2023-03-23T14:07:56;17.50;64.70
17968;DHT22;9109;48.050;11.696;2023-03-23T14:11:01;17.60;64.80
17968;DHT22;9109;48.050;11.696;2023-03-23T14:14:06;17.60;64.80
17968;DHT22;9109;48.050;11.696;2023-03-23T14:17:13;17.50;65.30
17968;DHT22;9109;48.050;11.696;2023-03-23T14:20:22;17.60;65.10
17968;DHT22;9109;48.050;11.696;2023-03-23T14:23:26;17.70;65.30
17968;DHT22;9109;48.050;11.696;2023-03-23T14:26:28;17.80;64.30
17968;DHT22;9109;48.050;11.696;2023-03-23T14:29:31;17.90;64.90
17968;DHT22;9109;48.050;11.696;2023-03-23T14:32:33;17.90;65.00
17968;DHT22;9109;48.050;11.696;2023-03-23T14:35:37;17.90;64.20
17968;DHT22;9109;48.050;11.696;2023-03-23T14:38:43;17.80;65.30
17968;DHT22;9109;48.050;11.696;2023-03-23T14:41:45;17.70;65.60
17968;DHT22;9109;48.050;11.696;2023-03-23T14:44:48;17.70;64.90
17968;DHT22;9109;48.050;11.696;2023-03-23T14:47:53;17.70;65.20
17968;DHT22;9109;48.050;11.696;2023-03-23T14:50:59;17.80;66.20
17968;DHT22;9109;48.050;11.696;2023-03-23T14:54:08;17.80;65.50
17968;DHT22;9109;48.050;11.696;2023-03-23T14:57:13;17.70;66.20
17968;DHT22;9109;48.050;11.696;2023-03-23T15:00:19;17.80;65.90
17968;DHT22;9109;48.050;11.696;2023-03-23T15:03:22;17.80;65.50
17968;DHT22;9109;48.050;11.696;2023-03-23T15:06:27;17.80;64.90
17968;DHT22;9109;48.050;11.696;2023-03-23T15:09:31;17.70;66.10
17968;DHT22;9109;48.050;11.696;2023-03-23T15:12:34;17.70;65.80
17968;DHT22;9109;48.050;11.696;2023-03-23T15:15:37;17.70;67.20
17968;DHT22;9109;48.050;11.696;2023-03-23T15:18:40;17.60;67.70
17968;DHT22;9109;48.050;11.696;2023-03-23T15:21:48;17.50;67.60
17968;DHT22;9109;48.050;11.696;2023-03-23T15:24:53;17.50;68.00
17968;DHT22;9109;48.050;11.696;2023-03-23T15:27:57;17.50;67.50
17968;DHT22;9109;48.050;11.696;2023-03-23T15:31:01;17.40;68.90
17968;DHT22;9109;48.050;11.696;2023-03-23T15:34:04;17.20;68.80
17968;DHT22;9109;48.050;11.696;2023-03-23T15:37:18;17.10;69.10
17968;DHT22;9109;48.050;11.696;2023-03-23T15:40:24;17.10;69.20
17968;DHT22;9109;48.050;11.696;2023-03-23T15:43:27;17.00;69.10
17968;DHT22;9109;48.050;11.696;2023-03-23T15:46:29;17.00;69.40
17968;DHT22;9109;48.050;11.696;2023-03-23T15:49:31;16.80;69.70
17968;DHT22;9109;48.050;11.696;2023-03-23T15:52:33;16.80;70.00
17968;DHT22;9109;48.050;11.696;2023-03-23T15:55:38;16.90;70.30
17968;DHT22;9109;48.050;11.696;2023-03-23T15:58:40;16.90;70.30
17968;DHT22;9109;48.050;11.696;2023-03-23T16:01:42;16.90;70.60
17968;DHT22;9109;48.050;11.696;2023-03-23T16:04:44;16.90;70.60
17968;DHT22;9109;48.050;11.696;2023-03-23T16:07:46;16.90;70.60
17968;DHT22;9109;48.050;11.696;2023-03-23T16:10:50;16.80;70.40
17968;DHT22;9109;48.050;11.696;2023-03-23T16:13:52;16.80;70.40
17968;DHT22;9109;48.050;11.696;2023-03-23T16:16:54;16.80;71.00
17968;DHT22;9109;48.050;11.696;2023-03-23T16:19:56;16.80;71.10
17968;DHT22;9109;48.050;11.696;2023-03-23T16:22:58;16.70;70.90
17968;DHT22;9109;48.050;11.696;2023-03-23T16:26:02;16.70;71.40
17968;DHT22;9109;48.050;11.696;2023-03-23T16:29:09;16.80;71.90
17968;DHT22;9109;48.050;11.696;2023-03-23T16:32:11;16.70;73.10
17968;DHT22;9109;48.050;11.696;2023-03-23T16:35:14;16.60;74.20
17968;DHT22;9109;48.050;11.696;2023-03-23T16:38:17;16.60;75.70
17968;DHT22;9109;48.050;11.696;2023-03-23T16:41:20;16.60;76.60
17968;DHT22;9109;48.050;11.696;2023-03-23T16:44:22;16.50;77.00
17968;DHT22;9109;48.050;11.696;2023-03-23T16:47:24;16.40;77.50
17968;DHT22;9109;48.050;11.696;2023-03-23T16:50:27;16.30;78.80
17968;DHT22;9109;48.050;11.696;2023-03-23T16:53:29;16.20;79.60
17968;DHT22;9109;48.050;11.696;2023-03-23T16:56:33;16.10;80.60
17968;DHT22;9109;48.050;11.696;2023-03-23T16:59:35;16.00;81.40
17968;DHT22;9109;48.050;11.696;2023-03-23T17:02:39;15.90;82.70
17968;DHT22;9109;48.050;11.696;2023-03-23T17:05:41;15.90;82.60
17968;DHT22;9109;48.050;11.696;2023-03-23T17:08:44;15.90;81.90
17968;DHT22;9109;48.050;11.696;2023-03-23T17:11:47;15.80;81.60
17968;DHT22;9109;48.050;11.696;2023-03-23T17:14:49;15.80;82.60
17968;DHT22;9109;48.050;11.696;2023-03-23T17:17:51;15.70;84.00
17968;DHT22;9109;48.050;11.696;2023-03-23T17:20:54;15.70;84.30
17968;DHT22;9109;48.050;11.696;2023-03-23T17:23:56;15.60;86.60
17968;DHT22;9109;48.050;11.696;2023-03-23T17:26:59;15.50;87.40
17968;DHT22;9109;48.050;11.696;2023-03-23T17:30:01;15.30;89.40
17968;DHT22;9109;48.050;11.696;2023-03-23T17:33:03;15.30;89.10
17968;DHT22;9109;48.050;11.696;2023-03-23T17:36:06;15.30;87.80
17968;DHT22;9109;48.050;11.696;2023-03-23T17:39:08;15.20;85.80
17968;DHT22;9109;48.050;11.696;2023-03-23T17:42:11;15.20;85.80
17968;DHT22;9109;48.050;11.696;2023-03-23T17:45:13;15.20;88.10
17968;DHT22;9109;48.050;11.696;2023-03-23T17:48:15;15.10;88.70
17968;DHT22;9109;48.050;11.696;2023-03-23T17:51:17;15.10;88.50
17968;DHT22;9109;48.050;11.696;2023-03-23T17:54:19;15.20;88.50
17968;DHT22;9109;48.050;11.696;2023-03-23T17:57:23;15.20;89.60
17968;DHT22;9109;48.050;11.696;2023-03-23T18:00:25;15.10;90.10
17968;DHT22;9109;48.050;11.696;2023-03-23T18:03:27;15.10;90.60
17968;DHT22;9109;48.050;11.696;2023-03-23T18:06:29;14.90;91.30
17968;DHT22;9109;48.050;11.696;2023-03-23T18:09:32;14.70;92.50
17968;DHT22;9109;48.050;11.696;2023-03-23T18:12:35;14.60;93.10
17968;DHT22;9109;48.050;11.696;2023-03-23T18:15:37;14.50;93.10
17968;DHT22;9109;48.050;11.696;2023-03-23T18:18:39;14.40;93.30
17968;DHT22;9109;48.050;11.696;2023-03-23T18:21:41;14.40;93.20
17968;DHT22;9109;48.050;11.696;2023-03-23T18:24:43;14.40;93.20
17968;DHT22;9109;48.050;11.696;2023-03-23T18:27:48;14.50;93.30
17968;DHT22;9109;48.050;11.696;2023-03-23T18:30:50;14.40;93.40
17968;DHT22;9109;48.050;11.696;2023-03-23T18:33:52;14.40;92.70
17968;DHT22;9109;48.050;11.696;2023-03-23T18:36:54;14.30;92.30
17968;DHT22;9109;48.050;11.696;2023-03-23T18:39:56;14.30;92.20
17968;DHT22;9109;48.050;11.696;2023-03-23T18:43:00;14.30;91.90
17968;DHT22;9109;48.050;11.696;2023-03-23T18:46:02;14.30;92.00
17968;DHT22;9109;48.050;11.696;2023-03-23T18:49:04;14.30;91.80
17968;DHT22;9109;48.050;11.696;2023-03-23T18:52:06;14.30;91.80
17968;DHT22;9109;48.050;11.696;2023-03-23T18:55:08;14.20;91.80
17968;DHT22;9109;48.050;11.696;2023-03-23T18:58:12;14.20;92.10
17968;DHT22;9109;48.050;11.696;2023-03-23T19:01:15;14.20;92.30
17968;DHT22;9109;48.050;11.696;2023-03-23T19:04:17;14.30;92.10
17968;DHT22;9109;48.050;11.696;2023-03-23T19:07:21;14.20;92.00
17968;DHT22;9109;48.050;11.696;2023-03-23T19:10:23;14.20;92.00
17968;DHT22;9109;48.050;11.696;2023-03-23T19:13:27;14.20;92.10
17968;DHT22;9109;48.050;11.696;2023-03-23T19:16:31;14.20;92.50
17968;DHT22;9109;48.050;11.696;2023-03-23T19:19:36;14.10;93.10
17968;DHT22;9109;48.050;11.696;2023-03-23T19:22:38;14.10;93.60
17968;DHT22;9109;48.050;11.696;2023-03-23T19:25:40;14.00;94.30
17968;DHT22;9109;48.050;11.696;2023-03-23T19:28:44;14.00;94.20
17968;DHT22;9109;48.050;11.696;2023-03-23T19:31:46;13.90;94.60
17968;DHT22;9109;48.050;11.696;2023-03-23T19:34:48;13.80;95.60
17968;DHT22;9109;48.050;11.696;2023-03-23T19:37:49;13.70;96.70
17968;DHT22;9109;48.050;11.696;2023-03-23T19:40:53;13.70;97.40
17968;DHT22;9109;48.050;11.696;2023-03-23T19:43:58;13.70;97.70
17968;DHT22;9109;48.050;11.696;2023-03-23T19:47:00;13.60;98.20
17968;DHT22;9109;48.050;11.696;2023-03-23T19:50:03;13.50;98.80
17968;DHT22;9109;48.050;11.696;2023-03-23T19:53:06;13.50;99.60
17968;DHT22;9109;48.050;11.696;2023-03-23T19:56:11;13.50;99.70
17968;DHT22;9109;48.050;11.696;2023-03-23T19:59:14;13.40;99.90
17968;DHT22;9109;48.050;11.696;2023-03-23T20:02:16;13.50;99.90
17968;DHT22;9109;48.050;11.696;2023-03-23T20:05:18;13.50;99.90
17968;DHT22;9109;48.050;11.696;2023-03-23T20:08:20;13.50;99.90
17968;DHT22;9109;48.050;11.696;2023-03-23T20:11:22;13.50;99.90
17968;DHT22;9109;48.050;11.696;2023-03-23T20:14:25;13.60;99.90
17968;DHT22;9109;48.050;11.696;2023-03-23T20:17:27;13.60;99.90
17968;DHT22;9109;48.050;11.696;2023-03-23T20:20:29;13.60;99.70
17968;DHT22;9109;48.050;11.696;2023-03-23T20:23:31;13.60;99.90
17968;DHT22;9109;48.050;11.696;2023-03-23T20:26:36;13.50;99.90
17968;DHT22;9109;48.050;11.696;2023-03-23T20:29:41;13.50;99.90
17968;DHT22;9109;48.050;11.696;2023-03-23T20:36:07;13.50;99.90
17968;DHT22;9109;48.050;11.696;2023-03-23T20:37:59;13.50;99.90
17968;DHT22;9109;48.050;11.696;2023-03-23T20:41:57;13.40;99.90
17968;DHT22;9109;48.050;11.696;2023-03-23T21:42:20;13.00;99.90
17968;DHT22;9109;48.050;11.696;2023-03-23T22:18:25;12.80;99.90
17968;DHT22;9109;48.050;11.696;2023-03-23T22:21:55;12.80;99.90
17968;DHT22;9109;48.050;11.696;2023-03-23T22:30:29;12.70;99.90
17968;DHT22;9109;48.050;11.696;2023-03-23T22:33:52;12.70;99.90
17968;DHT22;9109;48.050;11.696;2023-03-23T22:37:41;12.70;99.90
17968;DHT22;9109;48.050;11.696;2023-03-23T22:45:50;12.70;99.90
